map of DHN home
DHN - Airport
Location
City:  Dothan, Alabama, United States
Name:Dothan Regional
ICAO:KDHN
IATA:DHN
FAA LID:DHN

Details
Type:Airport (Part 139 Class I)
Use:Public/Civil
Latitude:3119'16"N (31.321028)
Longitude:8526'58"W (-85.449471)
Datum:WGS 1984
Elevation:400 ft (122 m)
Variation:4.09W (WMM2015 magnetic declination)
-0.10 annual change
Runways:2
Longest:8499 × 150 ft (2590 × 45.5 m), paved

Time
Time Zone:UTC-6 (DST-5)
Local Time:

Weather
METAR:KDHN 131753Z VRB05KT 10SM CLR 11/M10 A3011 RMK AO2 SLP197 T01111100 10111 21011 58022 $
TAF:KDHN 131720Z 1318/1418 24005KT P6SM SKC

Related Locations
Nearby:
Farthest:USL: 11248 mi / 18102 km
Useless Loop, WA, AU

Find:

   beyond  
but within

Other Information
Maps:
Delays:
NOTAMs:
Links:
Sources:

  
flag of United States
flag of Alabama
  

Airport Diagram

Airport diagram for DHN

Airport diagram PDF

Sectional Chart

Flight Planning
at skyvector.com

Satellite Image

Google Maps Satellite view

 

Copyright © 2004-2017 Karl L. Swartz. All rights reserved.
The Great Circle Mapper name and logo are trademarks of the Great Circle Mapper.
All other trademarks mentioned herein belong to their respective owners.
Please see credits for attibutions and further copyright information.

  Follow gcmap on Facebook Follow gcmap on Twitter Follow gcmap on Google+ GCmap on LinkedIn

hCard Microformat

Geo Microformat